Time;durP1;ratioP1;P1;durP2;ratioP2;P2;SDS_P1;SDS_P2;PMS_P1;PMS_P2;Temp;Humidity;BMP_temperature;BMP_pressure;BME280_temperature;BME280_humidity;BME280_pressure;Samples;Min_cycle;Max_cycle;Signal;HPM_P1;HPM_P2
2022/06/12 00:01:20;;;;;;;64.50;50.40;;;22.90;57.20;;;;;;4910744;28;91320;-51
2022/06/12 00:03:49;;;;;;;64.47;50.58;;;22.90;57.30;;;;;;4905190;28;93720;-53
2022/06/12 00:06:17;;;;;;;64.43;50.35;;;22.80;57.50;;;;;;4913064;28;90087;-54
2022/06/12 00:08:43;;;;;;;66.45;50.65;;;22.80;57.40;;;;;;4909048;28;92175;-54
2022/06/12 00:11:11;;;;;;;65.90;50.38;;;22.80;57.60;;;;;;4914222;28;91165;-54
2022/06/12 00:13:42;;;;;;;65.75;50.58;;;22.80;57.70;;;;;;4912551;28;90339;-54
2022/06/12 00:16:09;;;;;;;64.68;50.63;;;22.80;57.50;;;;;;4916498;28;90824;-55
2022/06/12 00:18:35;;;;;;;65.65;50.30;;;22.80;57.70;;;;;;4909517;28;91339;-52
2022/06/12 00:21:10;;;;;;;64.25;50.20;;;22.70;57.90;;;;;;4923417;28;91048;-54
2022/06/12 00:23:50;;;;;;;64.03;50.35;;;22.70;57.90;;;;;;4916689;28;91538;-55
2022/06/12 00:26:21;;;;;;;67.55;50.40;;;22.70;57.90;;;;;;4909621;28;92825;-54
2022/06/12 00:28:47;;;;;;;;;;;22.60;58.10;;;;;;4915188;28;89711;-55
2022/06/12 00:31:13;;;;;;;66.13;50.10;;;22.70;58.00;;;;;;4918186;28;90746;-55
2022/06/12 00:33:38;;;;;;;65.43;50.42;;;22.70;58.00;;;;;;4920939;28;89636;-51
2022/06/12 00:36:05;;;;;;;65.65;50.72;;;22.60;58.20;;;;;;4907650;28;90493;-57
2022/06/12 00:38:31;;;;;;;66.05;50.75;;;22.50;58.30;;;;;;4914838;28;90302;-56
2022/06/12 00:40:57;;;;;;;65.20;50.53;;;22.50;58.20;;;;;;4913880;28;90439;-56
2022/06/12 00:43:27;;;;;;;65.68;50.53;;;22.50;58.40;;;;;;4911622;28;92354;-52
2022/06/12 00:45:59;;;;;;;64.78;50.35;;;22.50;58.30;;;;;;4909213;28;96136;-55
2022/06/12 00:48:34;;;;;;;65.35;50.75;;;22.60;58.20;;;;;;4917438;28;91630;-55
2022/06/12 00:51:16;;;;;;;66.55;50.92;;;22.60;58.20;;;;;;4913475;28;91862;-54
2022/06/12 00:53:52;;;;;;;64.95;50.42;;;22.50;58.30;;;;;;4915505;28;91278;-53
2022/06/12 00:56:34;;;;;;;66.15;50.45;;;22.50;58.40;;;;;;4907038;28;91239;-54
2022/06/12 00:59:11;;;;;;;65.32;50.35;;;22.50;58.40;;;;;;4916777;28;90798;-53
2022/06/12 01:01:40;;;;;;;65.30;50.30;;;22.50;58.50;;;;;;4907990;28;91893;-52
2022/06/12 01:06:55;;;;;;;65.45;50.45;;;22.40;58.60;;;;;;4924550;28;91190;-57
2022/06/12 01:09:26;;;;;;;65.90;50.42;;;22.40;58.60;;;;;;4911672;28;95268;-51
2022/06/12 01:11:54;;;;;;;65.30;50.45;;;22.40;58.60;;;;;;4913825;28;92403;-52
2022/06/12 01:14:25;;;;;;;65.70;50.67;;;22.40;58.60;;;;;;4913247;28;89999;-57
2022/06/12 01:16:53;;;;;;;65.97;50.55;;;22.40;58.80;;;;;;4918765;28;90208;-53
2022/06/12 01:19:27;;;;;;;65.75;50.65;;;22.40;58.70;;;;;;4911152;28;92697;-56
2022/06/12 01:22:22;;;;;;;66.22;50.33;;;22.40;58.60;;;;;;4919308;28;90758;-56
2022/06/12 01:25:09;;;;;;;65.60;50.78;;;22.30;58.70;;;;;;4921540;28;91094;-51
2022/06/12 01:28:10;;;;;;;66.13;50.25;;;22.30;58.90;;;;;;4911085;28;91154;-54
2022/06/12 01:30:44;;;;;;;65.70;50.33;;;22.30;58.90;;;;;;4918639;28;90504;-56
2022/06/12 01:33:19;;;;;;;64.90;50.50;;;22.30;58.80;;;;;;4913230;28;91520;-53
2022/06/12 01:35:52;;;;;;;65.22;50.47;;;22.20;58.90;;;;;;4908019;28;90190;-55
2022/06/12 01:38:30;;;;;;;64.15;50.33;;;22.30;58.80;;;;;;4905664;28;92249;-55
2022/06/12 01:40:59;;;;;;;65.32;50.53;;;22.30;58.90;;;;;;4911160;28;90946;-56
2022/06/12 01:43:45;;;;;;;64.38;50.33;;;22.20;58.90;;;;;;4915345;28;89649;-54
2022/06/12 01:46:16;;;;;;;64.22;50.03;;;22.20;59.00;;;;;;4900664;28;92430;-52
2022/06/12 01:48:47;;;;;;;;;;;22.20;59.00;;;;;;4914115;28;94802;-55
2022/06/12 01:51:28;;;;;;;64.32;50.22;;;22.20;59.00;;;;;;4915857;28;90758;-56
2022/06/12 01:53:58;;;;;;;64.25;50.25;;;22.20;59.00;;;;;;4921698;28;91508;-53
2022/06/12 01:56:39;;;;;;;63.65;50.05;;;22.10;59.00;;;;;;4921309;28;88858;-53
2022/06/12 01:59:23;;;;;;;64.88;50.28;;;22.10;59.10;;;;;;4925420;28;91007;-55
2022/06/12 02:01:53;;;;;;;64.53;50.25;;;22.10;59.20;;;;;;4914527;28;94152;-54
2022/06/12 02:04:27;;;;;;;65.32;50.22;;;22.10;59.20;;;;;;4916419;28;96274;-55
2022/06/12 02:07:13;;;;;;;64.22;50.08;;;22.10;59.20;;;;;;4921585;28;90150;-53
2022/06/12 02:09:45;;;;;;;64.22;50.05;;;22.10;59.20;;;;;;4916899;28;90622;-52
2022/06/12 02:15:41;;;;;;;64.93;50.25;;;22.00;59.20;;;;;;4920496;28;90221;-53
2022/06/12 02:18:32;;;;;;;65.65;50.53;;;22.00;59.40;;;;;;4915836;28;90461;-54
2022/06/12 02:21:18;;;;;;;65.03;50.40;;;22.00;59.40;;;;;;4917235;28;90702;-55
2022/06/12 02:24:14;;;;;;;65.20;50.42;;;22.00;59.40;;;;;;4925547;28;90928;-53
2022/06/12 02:27:00;;;;;;;65.57;50.30;;;22.00;59.40;;;;;;4915197;28;89814;-55
2022/06/12 02:29:37;;;;;;;67.15;50.88;;;22.00;59.20;;;;;;4927852;28;95214;-54
2022/06/12 02:32:18;;;;;;;64.95;50.25;;;22.00;59.40;;;;;;4922157;28;92600;-55
2022/06/12 02:34:51;;;;;;;66.97;50.38;;;21.90;59.40;;;;;;4919111;28;91605;-55
2022/06/12 02:37:22;;;;;;;65.05;50.20;;;21.90;59.40;;;;;;4914372;28;89777;-54
2022/06/12 02:39:53;;;;;;;64.32;50.35;;;21.90;59.50;;;;;;4921481;28;90166;-56
2022/06/12 02:42:25;;;;;;;;;;;21.90;59.50;;;;;;4918840;28;90127;-54
2022/06/12 02:44:59;;;;;;;66.28;50.35;;;21.90;59.50;;;;;;4922018;28;89971;-55
2022/06/12 02:47:30;;;;;;;64.43;50.35;;;21.90;59.50;;;;;;4927620;28;90308;-54
2022/06/12 02:49:57;;;;;;;64.83;50.33;;;21.90;59.40;;;;;;4930341;28;89877;-55
2022/06/12 02:52:41;;;;;;;63.80;50.15;;;21.90;59.50;;;;;;4915091;28;90949;-55
2022/06/12 02:55:19;;;;;;;64.65;50.20;;;21.90;59.60;;;;;;4915664;28;92670;-53
2022/06/12 02:58:00;;;;;;;64.70;50.15;;;21.90;59.50;;;;;;4922743;28;91619;-56
2022/06/12 03:00:50;;;;;;;63.13;49.88;;;21.90;59.50;;;;;;4915377;28;92605;-56
2022/06/12 03:03:44;;;;;;;64.28;50.33;;;21.80;59.70;;;;;;4915517;28;91152;-52
2022/06/12 03:06:10;;;;;;;63.97;50.00;;;21.80;59.70;;;;;;4919660;28;90860;-53
2022/06/12 03:08:40;;;;;;;65.18;50.35;;;21.80;59.70;;;;;;4908322;28;91353;-56
2022/06/12 03:11:13;;;;;;;63.80;50.25;;;21.80;59.70;;;;;;4906827;28;90167;-51
2022/06/12 03:13:39;;;;;;;65.15;50.30;;;21.80;59.60;;;;;;4916672;28;90519;-53
2022/06/12 03:16:16;;;;;;;63.00;50.05;;;21.80;59.70;;;;;;4915848;28;91389;-53
2022/06/12 03:18:56;;;;;;;64.55;50.15;;;21.70;59.70;;;;;;4921650;28;89935;-55
2022/06/12 03:21:43;;;;;;;64.10;49.85;;;21.70;59.90;;;;;;4909263;28;91570;-53
2022/06/12 03:24:12;;;;;;;64.50;50.33;;;21.80;59.70;;;;;;4916904;28;92505;-52
2022/06/12 03:26:47;;;;;;;65.13;50.08;;;21.70;59.70;;;;;;4921450;28;90976;-53
2022/06/12 03:29:34;;;;;;;64.38;50.10;;;21.70;59.70;;;;;;4910872;28;93583;-55
2022/06/12 03:32:02;;;;;;;66.68;50.25;;;21.70;59.70;;;;;;4923277;28;89880;-54
2022/06/12 03:34:48;;;;;;;65.57;50.33;;;21.60;59.70;;;;;;4912466;28;90492;-51
2022/06/12 03:37:36;;;;;;;63.80;50.20;;;21.70;59.80;;;;;;4916700;28;96563;-53
2022/06/12 03:40:20;;;;;;;63.33;49.78;;;21.60;59.80;;;;;;4918117;28;90050;-55
2022/06/12 03:42:52;;;;;;;64.40;50.17;;;21.60;60.00;;;;;;4922638;28;92237;-52
2022/06/12 03:45:33;;;;;;;64.57;50.13;;;21.60;59.90;;;;;;4911939;28;95261;-53
2022/06/12 03:48:17;;;;;;;64.20;50.42;;;21.60;59.90;;;;;;4919026;28;90118;-53
2022/06/12 03:51:20;;;;;;;63.45;49.83;;;21.60;59.80;;;;;;4922941;28;91582;-53
2022/06/12 03:54:00;;;;;;;65.25;50.35;;;21.60;60.00;;;;;;4919044;28;91086;-52
2022/06/12 03:59:17;;;;;;;63.47;50.17;;;21.60;60.60;;;;;;4921014;28;89675;-55
2022/06/12 04:01:44;;;;;;;63.50;49.83;;;21.60;59.90;;;;;;4915782;28;89528;-54
2022/06/12 04:04:11;;;;;;;64.28;50.13;;;21.60;59.90;;;;;;4918157;28;91242;-52
2022/06/12 04:06:38;;;;;;;63.78;49.95;;;21.60;60.00;;;;;;4908043;28;92534;-53
2022/06/12 04:09:12;;;;;;;65.60;50.33;;;21.60;59.80;;;;;;4915236;28;94652;-52
2022/06/12 04:11:39;;;;;;;64.85;50.08;;;21.60;59.70;;;;;;4916298;28;94634;-55
2022/06/12 04:14:10;;;;;;;64.57;50.22;;;21.60;59.80;;;;;;4906117;28;95676;-52
2022/06/12 04:16:39;;;;;;;;;;;21.60;59.70;;;;;;4916966;28;92367;-51
2022/06/12 04:19:10;;;;;;;65.45;50.05;;;21.60;59.70;;;;;;4913459;28;90476;-55
2022/06/12 04:21:50;;;;;;;64.53;49.90;;;21.60;59.70;;;;;;4910149;28;90280;-53
2022/06/12 04:24:39;;;;;;;63.72;50.08;;;21.60;59.90;;;;;;4912392;28;89398;-54
2022/06/12 04:27:41;;;;;;;64.97;50.28;;;21.60;59.70;;;;;;4911021;28;91314;-56
2022/06/12 04:30:21;;;;;;;66.25;49.85;;;21.60;59.90;;;;;;4841948;28;90846;-51
2022/06/12 04:32:48;;;;;;;64.07;50.10;;;21.50;59.90;;;;;;4912945;28;90251;-52
2022/06/12 04:35:15;;;;;;;65.75;50.10;;;21.50;60.20;;;;;;4913580;28;89970;-54
2022/06/12 04:37:42;;;;;;;63.92;50.13;;;21.40;60.10;;;;;;4915367;28;91266;-52
2022/06/12 04:40:22;;;;;;;65.28;50.38;;;21.30;60.50;;;;;;4908899;28;90606;-53
2022/06/12 04:42:48;;;;;;;64.65;50.05;;;21.30;60.60;;;;;;4919408;28;90936;-55
2022/06/12 04:45:14;;;;;;;64.03;50.15;;;21.20;60.80;;;;;;4915452;28;90323;-51
2022/06/12 04:47:40;;;;;;;65.50;50.13;;;21.10;61.00;;;;;;4913680;28;92398;-55
2022/06/12 04:50:09;;;;;;;62.22;49.67;;;21.00;61.30;;;;;;4906734;28;90739;-52
2022/06/12 04:52:34;;;;;;;64.30;50.10;;;21.10;61.50;;;;;;4927036;28;90064;-56
2022/06/12 04:55:00;;;;;;;65.35;50.10;;;21.00;61.40;;;;;;4919620;28;91176;-54
2022/06/12 04:57:26;;;;;;;65.22;50.38;;;21.00;61.50;;;;;;4911451;28;93092;-53
2022/06/12 04:59:52;;;;;;;64.95;50.13;;;21.00;61.60;;;;;;4920076;28;90346;-51
2022/06/12 05:02:18;;;;;;;65.05;50.28;;;21.00;61.70;;;;;;4913712;28;91220;-52
2022/06/12 05:04:43;;;;;;;65.45;50.30;;;21.00;61.40;;;;;;4912397;28;95503;-53
2022/06/12 05:07:13;;;;;;;65.25;50.17;;;21.00;61.50;;;;;;4915228;28;91604;-53
2022/06/12 05:09:39;;;;;;;63.70;50.45;;;21.00;61.70;;;;;;4917987;28;90515;-57
2022/06/12 05:12:06;;;;;;;62.97;49.92;;;21.00;61.60;;;;;;4912425;28;95351;-56
2022/06/12 05:14:32;;;;;;;63.97;49.90;;;21.00;61.30;;;;;;4911650;28;91460;-53
2022/06/12 05:17:05;;;;;;;64.20;50.33;;;21.00;61.40;;;;;;4910009;28;90323;-53
2022/06/12 05:19:34;;;;;;;63.40;49.95;;;21.00;61.30;;;;;;4913834;28;91253;-54
2022/06/12 05:22:00;;;;;;;64.10;50.17;;;21.10;61.30;;;;;;4921765;28;92977;-54
2022/06/12 05:24:27;;;;;;;64.35;50.17;;;21.20;60.70;;;;;;4910202;28;89843;-55
2022/06/12 05:26:53;;;;;;;63.15;49.97;;;21.20;60.50;;;;;;4901052;28;91432;-55
2022/06/12 05:29:27;;;;;;;64.32;50.42;;;21.20;60.60;;;;;;4914592;28;97143;-55
2022/06/12 05:31:53;;;;;;;65.68;50.65;;;21.30;60.30;;;;;;4916703;28;90905;-55
2022/06/12 05:34:21;;;;;;;64.30;50.42;;;21.40;60.10;;;;;;4912085;28;90546;-56
2022/06/12 05:36:47;;;;;;;64.22;50.20;;;21.40;59.80;;;;;;4913127;28;91492;-56
2022/06/12 05:39:14;;;;;;;65.53;50.35;;;21.40;59.70;;;;;;4929896;28;91220;-55
2022/06/12 05:41:39;;;;;;;64.85;50.35;;;21.50;59.80;;;;;;4919841;28;90136;-55
2022/06/12 05:44:06;;;;;;;64.50;50.55;;;21.50;59.60;;;;;;4923933;28;90224;-55
2022/06/12 05:46:32;;;;;;;63.83;50.15;;;21.50;59.80;;;;;;4924943;28;91016;-52
2022/06/12 05:48:59;;;;;;;65.65;50.50;;;21.50;59.80;;;;;;4930976;28;89981;-54
2022/06/12 05:51:24;;;;;;;64.18;50.55;;;21.50;59.60;;;;;;4917454;28;90032;-57
2022/06/12 05:53:50;;;;;;;64.78;50.35;;;21.50;59.90;;;;;;4909276;28;91405;-55
2022/06/12 05:56:22;;;;;;;66.05;50.78;;;21.50;59.90;;;;;;4908154;28;92157;-55
2022/06/12 05:58:48;;;;;;;65.40;50.42;;;21.50;59.60;;;;;;4908087;28;96650;-56
2022/06/12 06:01:17;;;;;;;65.60;50.70;;;21.60;59.50;;;;;;4911633;28;90813;-55
2022/06/12 06:03:43;;;;;;;67.40;50.35;;;21.50;59.60;;;;;;4916526;28;90381;-56
2022/06/12 06:06:13;;;;;;;65.80;50.35;;;21.50;59.60;;;;;;4914216;28;91249;-55
2022/06/12 06:08:39;;;;;;;63.70;50.33;;;21.50;59.30;;;;;;4921850;28;90641;-56
2022/06/12 06:11:06;;;;;;;64.80;50.42;;;21.50;59.70;;;;;;4916387;28;91676;-55
2022/06/12 06:13:32;;;;;;;64.88;50.60;;;21.60;59.70;;;;;;4912908;28;90170;-54
2022/06/12 06:15:58;;;;;;;64.70;50.35;;;21.50;59.40;;;;;;4907131;28;90135;-51
2022/06/12 06:18:25;;;;;;;65.28;50.70;;;21.50;59.60;;;;;;4913737;28;91134;-55
2022/06/12 06:20:51;;;;;;;67.18;50.63;;;21.50;59.60;;;;;;4912218;28;91198;-55
2022/06/12 06:23:17;;;;;;;65.20;50.72;;;21.50;59.60;;;;;;4911712;28;90501;-52
2022/06/12 06:25:43;;;;;;;64.22;50.38;;;21.60;59.60;;;;;;4914538;28;97508;-53
2022/06/12 06:28:11;;;;;;;65.43;50.55;;;21.60;59.80;;;;;;4900913;28;92577;-54
2022/06/12 06:30:37;;;;;;;64.35;50.22;;;21.60;59.50;;;;;;4910602;28;91160;-52
2022/06/12 06:33:03;;;;;;;66.70;50.72;;;21.60;59.60;;;;;;4908887;28;90848;-56
2022/06/12 06:35:30;;;;;;;65.30;50.78;;;21.70;59.60;;;;;;4905758;28;91605;-54
2022/06/12 06:37:55;;;;;;;65.57;50.58;;;21.80;59.30;;;;;;4913613;28;91578;-51
2022/06/12 06:40:25;;;;;;;65.47;50.63;;;21.80;59.30;;;;;;4919931;28;90004;-56
2022/06/12 06:42:51;;;;;;;65.32;50.55;;;21.80;59.30;;;;;;4905410;28;90866;-54
2022/06/12 06:48:03;;;;;;;66.68;50.65;;;21.90;59.20;;;;;;4914781;28;95584;-54
2022/06/12 06:50:31;;;;;;;64.35;50.53;;;22.00;59.10;;;;;;4922649;28;90375;-57
2022/06/12 06:52:57;;;;;;;64.55;50.50;;;21.90;58.80;;;;;;4907510;28;90663;-56
2022/06/12 06:55:23;;;;;;;65.70;50.75;;;22.00;58.80;;;;;;4908960;28;93806;-52
2022/06/12 06:57:50;;;;;;;66.72;50.60;;;22.00;58.60;;;;;;4916562;28;91549;-53
2022/06/12 07:00:24;;;;;;;65.40;50.50;;;22.00;58.90;;;;;;4912353;28;91262;-50
2022/06/12 07:02:50;;;;;;;63.65;50.60;;;22.10;58.70;;;;;;4919610;28;90790;-53
2022/06/12 07:05:17;;;;;;;65.80;50.53;;;22.10;58.70;;;;;;4916239;28;90585;-56
2022/06/12 07:07:43;;;;;;;66.95;50.65;;;22.10;58.90;;;;;;4910514;28;92038;-53
2022/06/12 07:10:14;;;;;;;64.18;50.38;;;22.20;58.70;;;;;;4918158;28;95374;-54
2022/06/12 07:12:40;;;;;;;;;;;22.20;58.60;;;;;;4910881;28;90079;-56
2022/06/12 07:15:07;;;;;;;66.68;50.78;;;22.30;58.40;;;;;;4919654;28;89673;-55
2022/06/12 07:17:32;;;;;;;65.43;50.55;;;22.30;58.60;;;;;;4918262;28;91003;-52
2022/06/12 07:19:58;;;;;;;66.22;50.72;;;22.20;58.60;;;;;;4913843;28;90541;-53
2022/06/12 07:22:24;;;;;;;65.00;50.63;;;22.30;58.50;;;;;;4912157;28;91787;-52
2022/06/12 07:24:50;;;;;;;66.25;50.72;;;22.20;58.50;;;;;;4915152;28;90828;-56
2022/06/12 07:27:16;;;;;;;65.05;50.80;;;22.20;58.60;;;;;;4917890;28;91103;-51
2022/06/12 07:29:41;;;;;;;67.07;51.38;;;22.20;58.70;;;;;;4913074;28;91427;-49
2022/06/12 07:32:08;;;;;;;67.90;50.55;;;22.30;58.70;;;;;;4912406;28;91203;-49
2022/06/12 07:34:33;;;;;;;66.70;50.88;;;22.20;58.60;;;;;;4921081;28;91239;-54
2022/06/12 07:37:00;;;;;;;66.85;50.72;;;22.40;58.60;;;;;;4918407;28;91015;-50
2022/06/12 07:39:28;;;;;;;64.90;50.45;;;22.40;58.50;;;;;;4914713;28;92885;-53
2022/06/12 07:41:54;;;;;;;69.53;51.33;;;22.40;58.40;;;;;;4921034;28;89862;-54
2022/06/12 07:44:23;;;;;;;65.75;51.05;;;22.50;58.20;;;;;;4917493;28;90283;-51
2022/06/12 07:46:51;;;;;;;64.72;50.67;;;22.50;58.30;;;;;;4914047;28;91830;-52
2022/06/12 07:49:18;;;;;;;66.22;50.72;;;22.50;58.30;;;;;;4918600;28;95106;-53
2022/06/12 07:51:44;;;;;;;64.55;50.47;;;22.40;58.50;;;;;;4922937;28;94376;-52
2022/06/12 07:54:11;;;;;;;65.53;50.85;;;22.40;58.50;;;;;;4923292;28;92308;-50
2022/06/12 07:56:37;;;;;;;66.22;51.00;;;22.40;58.60;;;;;;4919610;28;90340;-52
2022/06/12 07:59:04;;;;;;;64.28;50.63;;;22.50;58.50;;;;;;4921845;28;93166;-50
2022/06/12 08:01:30;;;;;;;64.43;50.35;;;22.50;58.20;;;;;;4926063;28;89805;-52
2022/06/12 08:03:56;;;;;;;64.80;50.63;;;22.50;58.40;;;;;;4929311;28;89789;-54
2022/06/12 08:06:23;;;;;;;64.97;50.38;;;22.40;58.70;;;;;;4933577;28;90316;-54
2022/06/12 08:08:49;;;;;;;64.97;50.72;;;22.50;58.90;;;;;;4917276;28;90071;-54
2022/06/12 08:11:16;;;;;;;65.55;50.63;;;22.50;58.50;;;;;;4933648;28;89484;-54
2022/06/12 08:13:42;;;;;;;66.22;50.80;;;22.40;58.50;;;;;;4924331;28;90543;-55
2022/06/12 08:16:08;;;;;;;67.97;50.53;;;22.50;58.50;;;;;;4931601;28;90656;-54
2022/06/12 08:18:33;;;;;;;67.75;50.85;;;22.40;58.70;;;;;;4915549;28;90318;-55
2022/06/12 08:21:06;;;;;;;66.95;51.17;;;22.40;58.50;;;;;;4926784;28;94663;-53
2022/06/12 08:23:37;;;;;;;65.38;50.63;;;22.50;58.50;;;;;;4916084;28;91954;-53
2022/06/12 08:26:16;;;;;;;65.28;50.80;;;22.50;58.10;;;;;;4912140;28;90803;-52
2022/06/12 08:28:53;;;;;;;77.35;57.42;;;22.40;58.60;;;;;;4897944;28;93357;-53
2022/06/12 08:31:25;;;;;;;72.10;56.10;;;22.50;58.90;;;;;;4918157;28;90584;-52
2022/06/12 08:33:55;;;;;;;70.13;53.40;;;22.40;59.10;;;;;;4913072;28;91482;-55
2022/06/12 08:36:21;;;;;;;73.07;52.55;;;22.40;59.10;;;;;;4921047;28;94097;-54
2022/06/12 08:38:48;;;;;;;71.05;52.95;;;22.40;59.20;;;;;;4910918;28;91624;-51
2022/06/12 08:41:31;;;;;;;69.82;52.70;;;22.40;58.80;;;;;;4911929;28;91948;-55
2022/06/12 08:44:03;;;;;;;70.65;51.92;;;22.60;58.50;;;;;;4918032;28;90114;-53
2022/06/12 08:46:54;;;;;;;69.65;51.80;;;22.60;57.90;;;;;;4918016;28;95322;-55
2022/06/12 08:49:43;;;;;;;69.80;52.13;;;22.70;57.70;;;;;;4905391;28;90840;-51
2022/06/12 08:52:12;;;;;;;68.05;51.88;;;22.80;57.80;;;;;;4914069;28;90237;-55
2022/06/12 08:55:04;;;;;;;66.97;51.88;;;22.70;57.90;;;;;;4913770;28;90258;-54
2022/06/12 08:57:40;;;;;;;69.00;52.05;;;22.70;57.70;;;;;;4905841;28;93222;-52
2022/06/12 09:00:12;;;;;;;69.60;52.03;;;22.60;57.40;;;;;;4909943;28;90792;-50
2022/06/12 09:02:41;;;;;;;73.32;52.15;;;22.60;57.10;;;;;;4913798;28;90047;-53
2022/06/12 09:05:12;;;;;;;72.13;51.97;;;22.70;57.20;;;;;;4905899;28;95096;-53
2022/06/12 09:07:52;;;;;;;68.78;52.08;;;22.80;56.50;;;;;;4916911;28;89532;-50
2022/06/12 09:10:28;;;;;;;69.07;51.92;;;22.90;56.10;;;;;;4916760;28;90938;-52
2022/06/12 09:13:00;;;;;;;68.35;52.25;;;22.90;56.40;;;;;;4904123;28;90214;-52
2022/06/12 09:15:42;;;;;;;72.50;51.72;;;22.80;56.20;;;;;;4908397;28;98893;-53
2022/06/12 09:18:20;;;;;;;66.63;51.42;;;22.20;52.40;;;;;;4918364;28;91392;-55
2022/06/12 09:21:20;;;;;;;69.85;51.45;;;21.60;55.10;;;;;;4911296;28;89993;-54
2022/06/12 09:24:09;;;;;;;68.38;51.88;;;21.60;54.70;;;;;;4919008;28;90192;-52
2022/06/12 09:26:43;;;;;;;67.38;51.17;;;21.30;54.50;;;;;;4919786;28;91088;-52
2022/06/12 09:29:33;;;;;;;72.65;52.13;;;21.70;57.50;;;;;;4916381;28;90903;-53
2022/06/12 09:32:14;;;;;;;73.70;52.00;;;21.90;57.20;;;;;;4914566;28;89647;-54
2022/06/12 09:35:21;;;;;;;72.80;51.85;;;22.10;58.10;;;;;;4913055;28;89355;-53
2022/06/12 09:38:21;;;;;;;67.70;51.22;;;22.20;55.90;;;;;;4918591;28;90920;-55
2022/06/12 09:40:52;;;;;;;69.07;51.80;;;22.20;53.10;;;;;;4913535;28;91211;-55
2022/06/12 09:43:35;;;;;;;68.13;51.10;;;22.20;53.40;;;;;;4916723;28;94357;-57
2022/06/12 09:46:32;;;;;;;70.72;51.70;;;22.20;52.70;;;;;;4912262;28;91087;-52
2022/06/12 09:49:27;;;;;;;68.65;51.42;;;22.20;53.20;;;;;;4891036;28;92518;-56
2022/06/12 09:51:59;;;;;;;66.88;51.25;;;22.00;52.80;;;;;;4919242;28;91616;-54
2022/06/12 09:54:48;;;;;;;68.38;51.38;;;21.80;52.70;;;;;;4909999;28;90048;-54
2022/06/12 09:57:39;;;;;;;66.78;51.35;;;21.90;54.00;;;;;;4908182;28;89835;-56
2022/06/12 10:00:22;;;;;;;66.63;51.60;;;22.10;53.40;;;;;;4916658;28;91429;-53
2022/06/12 10:02:53;;;;;;;68.25;51.20;;;22.30;55.90;;;;;;4913905;28;91018;-53
2022/06/12 10:06:06;;;;;;;68.53;51.53;;;22.30;53.80;;;;;;4908798;28;90960;-56
2022/06/12 10:08:50;;;;;;;68.35;51.58;;;22.40;53.10;;;;;;4888436;28;90801;-56
2022/06/12 10:11:59;;;;;;;73.45;51.75;;;22.30;52.30;;;;;;4913160;28;91181;-56
2022/06/12 10:14:29;;;;;;;67.13;51.28;;;22.30;52.60;;;;;;4900489;28;91729;-54
2022/06/12 10:17:03;;;;;;;69.53;52.47;;;22.40;53.20;;;;;;4915076;28;90807;-56
2022/06/12 10:19:38;;;;;;;70.55;51.70;;;22.30;52.40;;;;;;4910616;28;90264;-50
2022/06/12 10:22:13;;;;;;;67.85;51.45;;;22.20;52.60;;;;;;4921492;28;90708;-51
2022/06/12 10:24:39;;;;;;;68.88;51.60;;;22.30;50.80;;;;;;4913610;28;90226;-46
2022/06/12 10:27:08;;;;;;;67.95;51.75;;;22.20;50.30;;;;;;4913718;28;91399;-54
2022/06/12 10:29:56;;;;;;;70.13;51.65;;;22.30;52.90;;;;;;4916983;28;89578;-54
2022/06/12 10:32:26;;;;;;;75.97;51.45;;;22.40;52.00;;;;;;4916757;28;90979;-53
2022/06/12 10:34:56;;;;;;;69.22;51.75;;;22.50;52.10;;;;;;4908763;28;94670;-51
2022/06/12 10:37:22;;;;;;;66.28;51.28;;;22.60;52.90;;;;;;4910483;28;93151;-54
2022/06/12 10:40:21;;;;;;;67.10;51.63;;;22.40;51.50;;;;;;4897080;28;92580;-53
2022/06/12 10:42:56;;;;;;;69.93;51.40;;;22.50;52.00;;;;;;4921277;28;90255;-56
2022/06/12 10:45:35;;;;;;;72.53;51.40;;;22.60;52.90;;;;;;4911778;28;92103;-54
2022/06/12 10:48:23;;;;;;;69.47;51.55;;;22.50;51.80;;;;;;4915239;28;90546;-52
2022/06/12 10:51:00;;;;;;;71.35;51.80;;;22.40;51.00;;;;;;4913186;28;91387;-52
2022/06/12 10:53:30;;;;;;;70.03;52.17;;;22.60;52.50;;;;;;4916412;28;89974;-54
2022/06/12 10:56:08;;;;;;;71.22;51.97;;;22.70;51.80;;;;;;4926079;28;89347;-52
2022/06/12 10:59:09;;;;;;;68.15;51.50;;;22.70;51.40;;;;;;4917406;28;90410;-56
2022/06/12 11:01:53;;;;;;;67.20;51.05;;;22.80;51.50;;;;;;4909671;28;91551;-60
2022/06/12 11:04:56;;;;;;;71.00;51.40;;;22.70;50.40;;;;;;4909285;28;92474;-50
2022/06/12 11:07:41;;;;;;;68.30;51.75;;;22.70;50.00;;;;;;4914849;28;97473;-49
2022/06/12 11:10:31;;;;;;;67.97;51.35;;;22.70;51.20;;;;;;4908840;28;90873;-50
2022/06/12 11:12:56;;;;;;;67.53;51.33;;;22.90;50.50;;;;;;4917880;28;90277;-55
2022/06/12 11:15:43;;;;;;;71.55;51.83;;;22.90;51.70;;;;;;4913596;28;95151;-58
2022/06/12 11:18:14;;;;;;;69.95;51.45;;;23.00;50.10;;;;;;4915333;28;90110;-55
2022/06/12 11:20:42;;;;;;;67.82;51.58;;;23.10;50.80;;;;;;4910481;28;92121;-61
2022/06/12 11:23:31;;;;;;;69.65;51.35;;;23.00;50.30;;;;;;4907854;28;90934;-53
2022/06/12 11:26:15;;;;;;;68.72;51.65;;;23.10;50.30;;;;;;4905144;28;93091;-54
2022/06/12 11:28:48;;;;;;;70.63;51.65;;;22.90;48.90;;;;;;4911352;28;94519;-55
2022/06/12 11:31:33;;;;;;;68.95;51.75;;;23.00;49.80;;;;;;4905709;28;91550;-54
2022/06/12 11:34:04;;;;;;;67.80;51.42;;;23.00;49.30;;;;;;4914980;28;91740;-55
2022/06/12 11:37:08;;;;;;;68.80;51.50;;;23.00;47.90;;;;;;4916328;28;90480;-52
2022/06/12 11:39:42;;;;;;;70.32;51.72;;;23.10;49.40;;;;;;4917079;28;93940;-56
2022/06/12 11:42:36;;;;;;;71.45;51.88;;;23.00;47.40;;;;;;4918983;28;91472;-53
2022/06/12 11:45:16;;;;;;;67.55;51.40;;;23.10;48.40;;;;;;4913375;28;90612;-53
2022/06/12 11:48:13;;;;;;;66.75;51.70;;;22.80;47.00;;;;;;4918663;28;91251;-55
2022/06/12 11:50:58;;;;;;;69.28;51.80;;;22.90;47.70;;;;;;4905459;28;91019;-56
2022/06/12 11:53:51;;;;;;;70.28;51.58;;;23.00;48.40;;;;;;4920834;28;89988;-59
2022/06/12 11:56:50;;;;;;;69.57;51.75;;;23.10;49.10;;;;;;4915243;28;91146;-57
2022/06/12 11:59:46;;;;;;;67.18;51.42;;;23.20;48.40;;;;;;4918584;28;93228;-56
2022/06/12 12:02:31;;;;;;;67.55;51.33;;;23.10;46.80;;;;;;4926204;28;90914;-52
2022/06/12 12:05:37;;;;;;;67.05;51.50;;;23.10;46.50;;;;;;4919955;28;91097;-56
2022/06/12 12:08:32;;;;;;;66.55;51.15;;;23.20;46.90;;;;;;4917547;28;93607;-54
2022/06/12 12:11:13;;;;;;;68.05;51.25;;;23.30;47.40;;;;;;4915630;28;90394;-54
2022/06/12 12:13:47;;;;;;;68.07;51.65;;;23.30;47.10;;;;;;4910664;28;91650;-54
2022/06/12 12:16:40;;;;;;;67.90;51.30;;;23.20;46.40;;;;;;4913643;28;91430;-54
2022/06/12 12:19:27;;;;;;;69.35;51.55;;;23.20;47.80;;;;;;4919311;28;89836;-54
2022/06/12 12:22:15;;;;;;;69.70;51.33;;;23.30;47.20;;;;;;4919246;28;90072;-54
2022/06/12 12:24:53;;;;;;;70.88;51.65;;;23.10;46.00;;;;;;4913581;28;89783;-53
2022/06/12 12:27:36;;;;;;;67.82;51.25;;;23.30;48.00;;;;;;4913348;28;92689;-55
2022/06/12 12:30:06;;;;;;;69.63;51.58;;;23.30;46.80;;;;;;4918258;28;96243;-52
2022/06/12 12:32:33;;;;;;;67.82;51.40;;;23.30;48.00;;;;;;4918191;28;91334;-56
2022/06/12 12:34:59;;;;;;;68.55;51.30;;;23.30;48.90;;;;;;4915985;28;92332;-54
2022/06/12 12:43:17;;;;;;;67.72;51.22;;;23.40;47.70;;;;;;4917606;28;90765;-56
2022/06/12 12:45:43;;;;;;;66.90;51.70;;;23.40;46.70;;;;;;4914104;28;91133;-53
2022/06/12 12:48:14;;;;;;;68.00;51.70;;;23.40;46.20;;;;;;4911260;28;91600;-57
2022/06/12 12:50:53;;;;;;;;;;;23.50;46.80;;;;;;4913728;28;91790;-56
2022/06/12 12:53:21;;;;;;;67.45;51.50;;;23.50;47.50;;;;;;4919801;28;96181;-52
2022/06/12 12:56:04;;;;;;;66.75;51.35;;;23.40;46.50;;;;;;4922795;28;90947;-53
2022/06/12 12:58:36;;;;;;;67.75;51.58;;;23.40;46.70;;;;;;4929598;28;90266;-53
2022/06/12 13:01:02;;;;;;;69.35;51.83;;;23.40;46.50;;;;;;4919909;28;89784;-52
2022/06/12 13:03:31;;;;;;;67.07;51.28;;;23.40;46.70;;;;;;4920381;28;90801;-57
2022/06/12 13:06:16;;;;;;;66.72;51.55;;;23.40;46.10;;;;;;4917301;28;92283;-52
2022/06/12 13:09:06;;;;;;;66.50;51.42;;;23.40;46.10;;;;;;4913815;28;90201;-55
2022/06/12 13:11:57;;;;;;;69.07;51.85;;;23.20;46.30;;;;;;4913387;28;89718;-56
2022/06/12 13:14:25;;;;;;;67.03;51.53;;;23.20;45.10;;;;;;4915270;28;90581;-54
2022/06/12 13:17:29;;;;;;;69.28;51.58;;;23.30;47.00;;;;;;4915273;28;90598;-52
2022/06/12 13:20:16;;;;;;;68.25;51.67;;;23.20;45.20;;;;;;4919802;28;92447;-51
2022/06/12 13:22:53;;;;;;;67.40;51.47;;;23.40;47.70;;;;;;4916594;28;91015;-55
2022/06/12 13:25:25;;;;;;;67.25;51.45;;;23.50;47.50;;;;;;4923702;28;90754;-55